Pagrindinis puslapis
METAR-TAF:

METAR-TAF

Oro uostai :

Le Touquet, Prancūzija

platuma: 50-30-53N, ilguma: 001-37-39E, Aukštis: 6 m

Dabartinis oras

Ataskaita buvo paskelbta 39 minutes, ne 20:30 UTC
Vėjas 12 kt iš Šiaurės Vakarų, svyruoja nuo Vakarų ir Šiaurės/Šiaurės Vakarų
Temperatūra 4°C
Drėgmė 70%
Slėgis 997 hPa
Matomumas 10 km arba daugiau
Mažai debesys ne aukštis 3000 ft
Išsisklaidę debesys ne aukštis 3700 ft

METAR: LFAT 232030Z AUTO 31012KT 280V340 9999 FEW030 SCT037 04/M01 Q0997

Laikas: 22:09 (21:09 UTC)

Prognozė

Ataskaita buvo paskelbta 7 valandos ir 9 minutes, ne 14:00 UTC
Prognozė galioja nuo 23 metu 15 UTC su 23 metu 24 UTC
Vėjas 8 kt iš Šiaurės/Šiaurės Vakarų
Matomumas 10 km arba daugiau
Su prošvaistėmis ne aukštis 1300 ft
Su prošvaistėmis ne aukštis 2000 ft
Tapsmas
nuo 23 metu 15 UTC su 23 metu 17 UTC
Su prošvaistėmis ne aukštis 2000 ft

TAF: LFAT 231400Z 2315/2324 34008KT 9999 BKN013 BKN020 BECMG 2315/2317 BKN020

Orai ataskaitas ir orų prognozės (METAR, TAF).

turimą stotys yra geltonos ir raudonos taškus žemėlapyje.

Perkelti pele per norėdami pamatyti stoties vardą.

Tada spustelėkite, norėdami matyti oro stebėjimo ir prognozės.

Norėdami pakeisti žemėlapį: spustelėkite ant žalios mygtukų su juodo kryžiaus žemyn,; žalią mygtuką su brūkšneliu, jei norite nutolinti; arba žalių rodyklių gretimoms žemėlapius.


METAR-TAF: